DLH010 EDDF-EDDM
Flight info
| Callsign | DLH010 |
|---|---|
| Flight time | 0h 36m |
| Altitude | 23000 |
| Route | CINDY6F/25C CINDY Z74 HAREM T104 ROKIL ROKIL1B |
| Aircraft | A359/H-SDE2E3GHIJ3J4J5LM1ORWXY/LB1D1 |
Departure
| Time | 2026-05-04 07:56 |
|---|---|
| Airport | Frankfurt Main Airport (EDDF) |
Arrival
| Time | 2026-05-04 08:33 |
|---|---|
| Airport | Munich Airport (EDDM) |
| Time | Latitude | Longitude | Altitude | Speed | Heading |
|---|---|---|---|---|---|
| 2026-05-04 07:26 | 50.04929 | 8.58180 | 359 ft | 0 kts | 340° |
| 2026-05-04 07:40 | 50.04928 | 8.58181 | 359 ft | 2 kts | 340° |
| 2026-05-04 07:40 | 50.04904 | 8.58195 | 363 ft | 4 kts | 339° |
| 2026-05-04 07:41 | 50.04878 | 8.58210 | 364 ft | 4 kts | 339° |
| 2026-05-04 07:41 | 50.04858 | 8.58225 | 365 ft | 4 kts | 302° |
| 2026-05-04 07:41 | 50.04858 | 8.58253 | 361 ft | 4 kts | 238° |
| 2026-05-04 07:41 | 50.04869 | 8.58285 | 365 ft | 1 kts | 254° |
| 2026-05-04 07:42 | 50.04870 | 8.58287 | 365 ft | 0 kts | 254° |
| 2026-05-04 07:44 | 50.04871 | 8.58287 | 365 ft | 0 kts | 254° |
| 2026-05-04 07:49 | 50.04765 | 8.57957 | 362 ft | 7 kts | 197° |
| 2026-05-04 07:49 | 50.04720 | 8.57956 | 362 ft | 0 kts | 171° |
| 2026-05-04 07:49 | 50.04671 | 8.57980 | 363 ft | 13 kts | 158° |
| 2026-05-04 07:50 | 50.04605 | 8.58019 | 354 ft | 5 kts | 159° |
| 2026-05-04 07:50 | 50.04565 | 8.58089 | 354 ft | 12 kts | 107° |
| 2026-05-04 07:50 | 50.04589 | 8.58210 | 354 ft | 13 kts | 64° |
| 2026-05-04 07:50 | 50.04619 | 8.58327 | 352 ft | 7 kts | 69° |
| 2026-05-04 07:51 | 50.04636 | 8.58395 | 348 ft | 9 kts | 70° |
| 2026-05-04 07:51 | 50.04649 | 8.58456 | 335 ft | 8 kts | 72° |
| 2026-05-04 07:51 | 50.04649 | 8.58511 | 335 ft | 0 kts | 112° |
| 2026-05-04 07:54 | 50.04498 | 8.58619 | 333 ft | 0 kts | 245° |
| 2026-05-04 07:55 | 50.04482 | 8.58561 | 332 ft | 30 kts | 248° |
| 2026-05-04 07:55 | 50.04314 | 8.57865 | 337 ft | 105 kts | 250° |
| 2026-05-04 07:56 | 50.03987 | 8.56500 | 399 ft | 160 kts | 250° |
| 2026-05-04 07:56 | 50.03595 | 8.54920 | 1096 ft | 158 kts | 249° |
| 2026-05-04 07:56 | 50.03204 | 8.53278 | 1715 ft | 167 kts | 249° |
| 2026-05-04 07:56 | 50.02635 | 8.51553 | 1948 ft | 193 kts | 232° |
| 2026-05-04 07:57 | 50.01601 | 8.50119 | 2381 ft | 206 kts | 209° |
| 2026-05-04 07:57 | 50.00260 | 8.49303 | 3080 ft | 208 kts | 196° |
| 2026-05-04 07:57 | 49.98802 | 8.49261 | 3747 ft | 215 kts | 169° |
| 2026-05-04 07:57 | 49.97498 | 8.50420 | 4375 ft | 223 kts | 136° |
| 2026-05-04 07:58 | 49.96602 | 8.52415 | 5049 ft | 228 kts | 123° |
| 2026-05-04 07:58 | 49.95819 | 8.54617 | 5517 ft | 242 kts | 120° |
| 2026-05-04 07:58 | 49.94992 | 8.57030 | 5772 ft | 263 kts | 121° |
| 2026-05-04 07:58 | 49.94206 | 8.59684 | 6223 ft | 278 kts | 108° |
| 2026-05-04 07:59 | 49.93924 | 8.62675 | 6847 ft | 284 kts | 95° |
| 2026-05-04 07:59 | 49.93812 | 8.65722 | 7488 ft | 288 kts | 95° |
| 2026-05-04 07:59 | 49.93398 | 8.68759 | 8108 ft | 289 kts | 116° |
| 2026-05-04 07:59 | 49.92213 | 8.71216 | 8795 ft | 284 kts | 143° |
| 2026-05-04 08:00 | 49.90644 | 8.73076 | 9479 ft | 285 kts | 148° |
| 2026-05-04 08:00 | 49.89038 | 8.74920 | 10139 ft | 291 kts | 143° |
| 2026-05-04 08:00 | 49.87706 | 8.77397 | 10472 ft | 310 kts | 125° |
| 2026-05-04 08:02 | 49.79336 | 9.00574 | 13329 ft | 370 kts | 122° |
| 2026-05-04 08:02 | 49.78067 | 9.04055 | 13831 ft | 373 kts | 122° |
| 2026-05-04 08:02 | 49.76798 | 9.07587 | 14281 ft | 378 kts | 120° |
| 2026-05-04 08:03 | 49.75840 | 9.11409 | 14704 ft | 384 kts | 108° |
| 2026-05-04 08:03 | 49.75159 | 9.15416 | 15179 ft | 386 kts | 107° |
| 2026-05-04 08:03 | 49.74166 | 9.19253 | 15654 ft | 383 kts | 123° |
| 2026-05-04 08:03 | 49.72675 | 9.22659 | 16157 ft | 383 kts | 130° |
| 2026-05-04 08:04 | 49.70989 | 9.25844 | 16648 ft | 384 kts | 134° |
| 2026-05-04 08:04 | 49.69205 | 9.28925 | 17150 ft | 385 kts | 136° |
| 2026-05-04 08:04 | 49.67389 | 9.31972 | 17638 ft | 387 kts | 136° |
| 2026-05-04 08:04 | 49.65561 | 9.35044 | 18118 ft | 389 kts | 136° |
| 2026-05-04 08:05 | 49.63738 | 9.38147 | 18560 ft | 391 kts | 135° |
| 2026-05-04 08:05 | 49.61920 | 9.41285 | 18925 ft | 395 kts | 135° |
| 2026-05-04 08:05 | 49.60092 | 9.44482 | 19296 ft | 398 kts | 135° |
| 2026-05-04 08:05 | 49.58256 | 9.47707 | 19636 ft | 402 kts | 135° |
| 2026-05-04 08:06 | 49.56428 | 9.50922 | 19976 ft | 405 kts | 135° |
| 2026-05-04 08:06 | 49.54566 | 9.54194 | 20376 ft | 407 kts | 135° |
| 2026-05-04 08:06 | 49.52693 | 9.57479 | 20737 ft | 410 kts | 135° |
| 2026-05-04 08:06 | 49.50802 | 9.60792 | 21106 ft | 413 kts | 135° |
| 2026-05-04 08:08 | 49.37173 | 9.84510 | 23027 ft | 449 kts | 135° |
| 2026-05-04 08:08 | 49.35092 | 9.88104 | 23040 ft | 452 kts | 134° |
| 2026-05-04 08:10 | 49.18411 | 10.16766 | 23055 ft | 450 kts | 135° |
| 2026-05-04 08:11 | 49.16359 | 10.20277 | 23055 ft | 450 kts | 135° |
| 2026-05-04 08:11 | 49.12162 | 10.27400 | 23055 ft | 452 kts | 135° |
| 2026-05-04 08:11 | 49.10006 | 10.30895 | 23067 ft | 452 kts | 136° |
| 2026-05-04 08:12 | 49.07828 | 10.34355 | 23065 ft | 452 kts | 136° |
| 2026-05-04 08:12 | 49.05649 | 10.37802 | 23060 ft | 452 kts | 136° |
| 2026-05-04 08:12 | 49.03472 | 10.41251 | 23063 ft | 451 kts | 136° |
| 2026-05-04 08:12 | 49.01302 | 10.44702 | 23069 ft | 450 kts | 136° |
| 2026-05-04 08:13 | 48.99143 | 10.48146 | 23073 ft | 449 kts | 136° |
| 2026-05-04 08:13 | 48.96985 | 10.51588 | 23073 ft | 449 kts | 136° |
| 2026-05-04 08:13 | 48.94822 | 10.55030 | 23067 ft | 450 kts | 136° |
| 2026-05-04 08:13 | 48.92665 | 10.58470 | 23053 ft | 450 kts | 136° |
| 2026-05-04 08:14 | 48.90496 | 10.61918 | 23068 ft | 452 kts | 136° |
| 2026-05-04 08:14 | 48.88314 | 10.65377 | 23067 ft | 454 kts | 136° |
| 2026-05-04 08:14 | 48.86156 | 10.68795 | 23067 ft | 454 kts | 136° |
| 2026-05-04 08:16 | 48.72164 | 10.93514 | 20119 ft | 425 kts | 114° |
| 2026-05-04 08:16 | 48.71083 | 10.97600 | 19868 ft | 412 kts | 114° |
| 2026-05-04 08:16 | 48.70029 | 11.01621 | 19141 ft | 412 kts | 114° |
| 2026-05-04 08:17 | 48.68962 | 11.05704 | 18120 ft | 421 kts | 114° |
| 2026-05-04 08:17 | 48.67884 | 11.09842 | 17287 ft | 422 kts | 114° |
| 2026-05-04 08:17 | 48.66820 | 11.13944 | 16651 ft | 416 kts | 114° |
| 2026-05-04 08:17 | 48.65784 | 11.17968 | 16348 ft | 403 kts | 113° |
| 2026-05-04 08:19 | 48.75826 | 11.37465 | 11736 ft | 397 kts | 25° |
| 2026-05-04 08:19 | 48.78061 | 11.39838 | 11247 ft | 391 kts | 45° |
| 2026-05-04 08:20 | 48.79618 | 11.43185 | 11067 ft | 389 kts | 66° |
| 2026-05-04 08:20 | 48.80343 | 11.47117 | 11042 ft | 387 kts | 86° |
| 2026-05-04 08:20 | 48.80175 | 11.51146 | 11051 ft | 383 kts | 105° |
| 2026-05-04 08:20 | 48.79344 | 11.54967 | 11044 ft | 381 kts | 113° |
| 2026-05-04 08:21 | 48.78382 | 11.58706 | 11043 ft | 381 kts | 114° |
| 2026-05-04 08:21 | 48.77410 | 11.62438 | 11043 ft | 381 kts | 114° |
| 2026-05-04 08:21 | 48.76437 | 11.66170 | 11048 ft | 381 kts | 114° |
| 2026-05-04 08:21 | 48.75462 | 11.69905 | 11042 ft | 381 kts | 114° |
| 2026-05-04 08:22 | 48.74487 | 11.73638 | 11042 ft | 381 kts | 114° |
| 2026-05-04 08:22 | 48.73510 | 11.77375 | 11051 ft | 381 kts | 114° |
| 2026-05-04 08:24 | 48.67091 | 12.01786 | 8686 ft | 314 kts | 114° |
| 2026-05-04 08:24 | 48.66288 | 12.04785 | 8506 ft | 301 kts | 114° |
| 2026-05-04 08:24 | 48.65518 | 12.07659 | 8308 ft | 289 kts | 114° |
| 2026-05-04 08:24 | 48.64708 | 12.10409 | 7947 ft | 283 kts | 122° |
| 2026-05-04 08:25 | 48.63371 | 12.12517 | 7524 ft | 278 kts | 149° |
| 2026-05-04 08:25 | 48.61589 | 12.13546 | 7112 ft | 274 kts | 169° |
| 2026-05-04 08:25 | 48.59710 | 12.13991 | 6692 ft | 273 kts | 173° |
| 2026-05-04 08:25 | 48.57830 | 12.14340 | 6428 ft | 273 kts | 174° |
| 2026-05-04 08:26 | 48.55948 | 12.14676 | 6062 ft | 272 kts | 174° |
| 2026-05-04 08:27 | 48.42882 | 12.16828 | 4995 ft | 267 kts | 173° |
| 2026-05-04 08:28 | 48.41053 | 12.16532 | 4999 ft | 268 kts | 202° |
| 2026-05-04 08:28 | 48.39628 | 12.14796 | 4997 ft | 268 kts | 235° |
| 2026-05-04 08:28 | 48.38944 | 12.12200 | 5004 ft | 270 kts | 259° |
| 2026-05-04 08:28 | 48.38758 | 12.09367 | 4993 ft | 273 kts | 266° |
| 2026-05-04 08:29 | 48.38669 | 12.07479 | 4896 ft | 263 kts | 265° |
| 2026-05-04 08:29 | 48.38378 | 12.04008 | 4474 ft | 241 kts | 262° |
| 2026-05-04 08:29 | 48.38181 | 12.01585 | 4110 ft | 226 kts | 264° |
| 2026-05-04 08:31 | 48.37215 | 11.88973 | 2401 ft | 151 kts | 264° |
| 2026-05-04 08:33 | 48.36482 | 11.79800 | 1464 ft | 30 kts | 249° |
| 2026-05-04 08:33 | 48.36465 | 11.79746 | 1459 ft | 5 kts | 240° |
| 2026-05-04 08:35 | 48.36146 | 11.79308 | 1469 ft | 2 kts | 177° |
| 2026-05-04 08:35 | 48.36074 | 11.79319 | 1463 ft | 13 kts | 172° |
| 2026-05-04 08:35 | 48.35977 | 11.79339 | 1465 ft | 13 kts | 173° |
| 2026-05-04 08:35 | 48.35883 | 11.79378 | 1467 ft | 15 kts | 167° |
| 2026-05-04 08:37 | 48.35173 | 11.79508 | 1465 ft | 10 kts | 173° |
| 2026-05-04 08:37 | 48.35123 | 11.79496 | 1465 ft | 0 kts | 210° |
| 2026-05-04 08:38 | 48.35121 | 11.79474 | 1464 ft | 4 kts | 261° |
| 2026-05-04 08:38 | 48.35115 | 11.79420 | 1465 ft | 7 kts | 262° |
| 2026-05-04 08:38 | 48.35111 | 11.79364 | 1467 ft | 0 kts | 264° |